createdAt,value
2019-05-11T00:02:13.768Z,12.60
2019-05-11T00:05:07.260Z,12.60
2019-05-11T00:07:51.727Z,12.60
2019-05-11T00:10:36.244Z,12.60
2019-05-11T00:13:22.811Z,12.60
2019-05-11T00:16:07.576Z,12.70
2019-05-11T00:18:52.415Z,12.70
2019-05-11T00:21:37.307Z,12.60
2019-05-11T00:24:22.392Z,12.50
2019-05-11T00:27:07.509Z,12.50
2019-05-11T00:29:51.768Z,12.60
2019-05-11T00:32:36.115Z,12.60
2019-05-11T00:35:29.521Z,12.60
2019-05-11T00:38:14.183Z,12.60
2019-05-11T00:40:58.747Z,12.60
2019-05-11T00:43:43.811Z,12.50
2019-05-11T00:46:28.607Z,12.50
2019-05-11T00:49:13.420Z,12.50
2019-05-11T00:51:57.999Z,12.50
2019-05-11T00:54:43.094Z,12.60
2019-05-11T00:57:28.873Z,12.70
2019-05-11T01:00:13.033Z,12.60
2019-05-11T01:03:07.137Z,12.70
2019-05-11T01:06:01.345Z,12.70
2019-05-11T01:08:55.346Z,13.00
2019-05-11T01:11:49.049Z,13.00
2019-05-11T01:14:33.554Z,13.00
2019-05-11T01:17:18.449Z,13.00
2019-05-11T01:20:03.364Z,12.80
2019-05-11T01:22:47.841Z,12.80
2019-05-11T01:25:32.428Z,12.70
2019-05-11T01:28:17.025Z,12.70
2019-05-11T01:31:10.625Z,12.80
2019-05-11T01:33:55.675Z,12.80
2019-05-11T01:36:49.709Z,12.60
2019-05-11T01:39:43.278Z,12.40
2019-05-11T01:42:28.130Z,12.30
2019-05-11T01:45:12.509Z,12.20
2019-05-11T01:47:57.381Z,12.30
2019-05-11T01:50:42.238Z,12.20
2019-05-11T01:53:27.134Z,12.10
2019-05-11T01:56:11.877Z,11.90
2019-05-11T01:58:56.754Z,11.90
2019-05-11T02:01:42.049Z,11.80
2019-05-11T02:04:27.098Z,11.80
2019-05-11T02:07:20.857Z,11.80
2019-05-11T02:10:05.697Z,12.00
2019-05-11T02:12:50.489Z,12.10
2019-05-11T02:15:34.987Z,12.10
2019-05-11T02:18:19.855Z,12.10
2019-05-11T02:21:06.123Z,12.10
2019-05-11T02:23:51.369Z,12.20
2019-05-11T02:26:35.973Z,12.30
2019-05-11T02:29:20.773Z,12.20
2019-05-11T02:32:06.173Z,12.40
2019-05-11T02:34:59.789Z,12.20
2019-05-11T02:37:44.210Z,12.20
2019-05-11T02:40:28.993Z,12.10
2019-05-11T02:43:13.684Z,12.10
2019-05-11T02:45:58.234Z,12.10
2019-05-11T02:48:43.165Z,12.10
2019-05-11T02:51:37.737Z,12.00
2019-05-11T02:54:22.322Z,12.00
2019-05-11T02:57:07.009Z,12.00
2019-05-11T02:59:51.626Z,12.00
2019-05-11T03:02:36.142Z,12.10
2019-05-11T03:05:29.546Z,12.10
2019-05-11T03:08:14.324Z,12.10
2019-05-11T03:10:58.890Z,12.10
2019-05-11T03:13:43.374Z,12.10
2019-05-11T03:16:37.994Z,12.20
2019-05-11T03:19:22.692Z,12.20
2019-05-11T03:22:07.281Z,12.30
2019-05-11T03:24:51.894Z,12.30
2019-05-11T03:27:36.813Z,12.30
2019-05-11T03:30:21.090Z,12.40
2019-05-11T03:33:14.354Z,12.40
2019-05-11T03:35:59.554Z,12.50
2019-05-11T03:38:44.090Z,12.50
2019-05-11T03:41:28.665Z,12.50
2019-05-11T03:44:13.903Z,12.50
2019-05-11T03:46:58.325Z,12.50
2019-05-11T03:49:52.873Z,12.50
2019-05-11T03:52:37.595Z,12.50
2019-05-11T03:55:21.952Z,12.50
2019-05-11T03:58:06.193Z,12.50
2019-05-11T04:00:51.731Z,12.50
2019-05-11T04:03:48.778Z,12.50
2019-05-11T04:06:33.883Z,12.60
2019-05-11T04:09:18.734Z,12.60
2019-05-11T04:12:03.751Z,12.60
2019-05-11T04:14:48.681Z,12.60
2019-05-11T04:17:33.097Z,12.60
2019-05-11T04:20:17.983Z,12.60
2019-05-11T04:23:02.545Z,12.60
2019-05-11T04:25:46.814Z,12.70
2019-05-11T04:28:43.305Z,12.70
2019-05-11T04:31:28.038Z,12.70
2019-05-11T04:34:12.971Z,12.70
2019-05-11T04:36:57.687Z,12.70
2019-05-11T04:39:42.294Z,12.70
2019-05-11T04:42:26.958Z,12.70
2019-05-11T04:45:11.513Z,12.70
2019-05-11T04:47:57.046Z,12.80
2019-05-11T04:50:42.093Z,12.80
2019-05-11T04:53:35.497Z,12.80
2019-05-11T04:56:20.478Z,12.80
2019-05-11T04:59:05.221Z,12.80
2019-05-11T05:01:49.913Z,12.90
2019-05-11T05:04:34.469Z,12.90
2019-05-11T05:07:19.237Z,12.90
2019-05-11T05:10:04.093Z,12.90
2019-05-11T05:12:51.397Z,12.90
2019-05-11T05:15:34.746Z,12.90
2019-05-11T05:18:20.142Z,12.90
2019-05-11T05:21:04.834Z,13.00
2019-05-11T05:23:49.617Z,13.10
2019-05-11T05:26:34.377Z,13.20
2019-05-11T05:29:19.339Z,13.20
2019-05-11T05:32:04.634Z,13.30
2019-05-11T05:34:49.024Z,13.40
2019-05-11T05:37:33.687Z,13.40
2019-05-11T05:40:18.341Z,13.40
2019-05-11T05:43:02.545Z,13.40
2019-05-11T05:45:56.009Z,13.50
2019-05-11T05:48:40.705Z,13.60
2019-05-11T05:51:25.508Z,13.60
2019-05-11T05:54:10.305Z,13.60
2019-05-11T05:56:55.446Z,13.50
2019-05-11T05:59:40.061Z,13.50
2019-05-11T06:02:24.674Z,13.50
2019-05-11T06:05:09.301Z,13.50
2019-05-11T06:07:54.081Z,13.50
2019-05-11T06:10:40.469Z,13.40
2019-05-11T06:13:45.240Z,13.30
2019-05-11T06:16:21.292Z,13.20
2019-05-11T06:19:05.972Z,13.20
2019-05-11T06:21:50.965Z,13.20
2019-05-11T06:24:35.713Z,13.20
2019-05-11T06:27:20.973Z,13.20
2019-05-11T06:30:05.190Z,13.30
2019-05-11T06:32:49.754Z,13.30
2019-05-11T06:35:34.568Z,13.30
2019-05-11T06:38:19.245Z,13.30
2019-05-11T06:41:03.902Z,13.30
2019-05-11T06:44:01.765Z,13.40
2019-05-11T06:46:43.810Z,13.60
2019-05-11T06:49:28.461Z,13.60
2019-05-11T06:52:13.048Z,13.80
2019-05-11T06:54:57.703Z,13.90
2019-05-11T06:57:42.404Z,13.90
2019-05-11T07:00:26.944Z,13.90
2019-05-11T07:03:11.606Z,14.00
2019-05-11T07:06:04.993Z,14.10
2019-05-11T07:08:49.697Z,14.10
2019-05-11T07:11:34.211Z,14.20
2019-05-11T07:14:21.345Z,14.30
2019-05-11T07:17:06.483Z,14.50
2019-05-11T07:19:59.604Z,14.70
2019-05-11T07:22:44.538Z,14.80
2019-05-11T07:25:28.684Z,14.90
2019-05-11T07:28:13.141Z,15.10
2019-05-11T07:30:58.673Z,15.20
2019-05-11T07:33:43.629Z,15.30
2019-05-11T07:36:28.738Z,15.40
2019-05-11T07:39:12.886Z,15.60
2019-05-11T07:41:58.427Z,15.60
2019-05-11T07:44:52.149Z,15.70
2019-05-11T07:47:37.948Z,15.80
2019-05-11T07:50:23.017Z,15.90
2019-05-11T07:53:08.262Z,16.10
2019-05-11T07:55:53.006Z,16.40
2019-05-11T07:58:38.749Z,16.60
2019-05-11T08:01:23.901Z,16.80
2019-05-11T08:04:08.482Z,17.00
2019-05-11T08:06:53.585Z,17.10
2019-05-11T08:09:38.414Z,17.10
2019-05-11T08:12:22.933Z,17.10
2019-05-11T08:15:12.504Z,17.10
2019-05-11T08:18:02.807Z,17.10
2019-05-11T08:20:48.317Z,17.10
2019-05-11T08:23:32.946Z,16.90
2019-05-11T08:26:28.320Z,16.90
2019-05-11T08:29:13.173Z,17.00
2019-05-11T08:32:08.227Z,17.00
2019-05-11T08:34:52.909Z,17.00
2019-05-11T08:37:38.792Z,17.00
2019-05-11T08:40:24.441Z,17.00
2019-05-11T08:43:08.979Z,17.10
2019-05-11T08:45:53.805Z,17.30
2019-05-11T08:48:38.963Z,17.40
2019-05-11T08:51:24.102Z,17.50
2019-05-11T08:54:18.428Z,17.70
2019-05-11T08:57:03.449Z,17.80
2019-05-11T08:59:48.644Z,17.70
2019-05-11T09:02:33.689Z,17.60
2019-05-11T09:05:18.895Z,17.60
2019-05-11T09:08:12.573Z,17.50
2019-05-11T09:10:58.238Z,17.20
2019-05-11T09:13:42.864Z,16.90
2019-05-11T09:16:38.119Z,16.70
2019-05-11T09:19:22.333Z,16.40
2019-05-11T09:22:08.280Z,16.20
2019-05-11T09:24:52.981Z,16.20
2019-05-11T09:27:48.192Z,16.20
2019-05-11T09:30:32.474Z,16.40
2019-05-11T09:33:20.211Z,16.60
2019-05-11T09:36:03.083Z,16.90
2019-05-11T09:38:58.160Z,17.20
2019-05-11T09:41:43.171Z,17.30
2019-05-11T09:44:38.004Z,17.50
2019-05-11T09:47:22.722Z,17.70
2019-05-11T09:50:18.064Z,17.90
2019-05-11T09:53:11.689Z,18.10
2019-05-11T09:55:58.532Z,18.40
2019-05-11T09:58:42.296Z,18.50
2019-05-11T10:01:26.537Z,18.70
2019-05-11T10:04:20.133Z,19.00
2019-05-11T10:07:04.681Z,19.30
2019-05-11T10:09:49.285Z,19.50
2019-05-11T10:12:34.068Z,19.80
2019-05-11T10:15:19.075Z,20.00
2019-05-11T10:18:04.289Z,20.10
2019-05-11T10:20:49.209Z,19.90
2019-05-11T10:23:43.253Z,19.60
2019-05-11T10:26:28.405Z,19.30
2019-05-11T10:29:21.878Z,19.10
2019-05-11T10:32:07.950Z,18.80
2019-05-11T10:34:52.834Z,18.80
2019-05-11T10:37:38.927Z,18.90
2019-05-11T10:40:24.081Z,18.90
2019-05-11T10:43:08.760Z,18.80
2019-05-11T10:45:53.457Z,18.80
2019-05-11T10:48:38.923Z,18.90
2019-05-11T10:51:33.078Z,19.00
2019-05-11T10:54:28.885Z,19.10
2019-05-11T10:57:22.393Z,19.10
2019-05-11T11:00:08.425Z,19.10
2019-05-11T11:02:53.323Z,19.00
2019-05-11T11:05:38.453Z,19.00
2019-05-11T11:08:32.076Z,18.90
2019-05-11T11:11:18.446Z,19.00
2019-05-11T11:14:03.416Z,19.10
2019-05-11T11:16:48.182Z,19.00
2019-05-11T11:19:32.672Z,18.90
2019-05-11T11:22:35.974Z,18.90
2019-05-11T11:25:03.348Z,19.00
2019-05-11T11:27:57.829Z,18.80
2019-05-11T11:30:42.353Z,18.90
2019-05-11T11:33:38.061Z,19.00
2019-05-11T11:36:21.921Z,19.10
2019-05-11T11:39:08.370Z,19.20
2019-05-11T11:41:53.244Z,19.30
2019-05-11T11:44:38.018Z,19.50
2019-05-11T11:47:22.597Z,19.80
2019-05-11T11:50:09.089Z,20.00
2019-05-11T11:52:53.667Z,20.10
2019-05-11T11:55:39.054Z,20.20
2019-05-11T11:58:24.662Z,20.10
2019-05-11T12:01:09.564Z,20.00
2019-05-11T12:03:54.897Z,19.80
2019-05-11T12:06:39.473Z,19.60
2019-05-11T12:09:23.697Z,19.50
2019-05-11T12:12:18.555Z,19.60
2019-05-11T12:15:03.689Z,19.30
2019-05-11T12:17:49.992Z,19.20
2019-05-11T12:20:34.209Z,19.10
2019-05-11T12:23:18.785Z,19.00
2019-05-11T12:26:03.349Z,19.00
2019-05-11T12:28:57.698Z,19.10
2019-05-11T12:31:55.961Z,19.40
2019-05-11T12:34:58.733Z,19.90
2019-05-11T12:37:43.701Z,20.10
2019-05-11T12:40:43.221Z,20.20
2019-05-11T12:43:28.190Z,20.30
2019-05-11T12:46:01.072Z,20.60
2019-05-11T12:48:56.614Z,21.00
2019-05-11T12:51:41.013Z,21.50
2019-05-11T12:54:25.484Z,21.70
2019-05-11T12:57:10.082Z,21.70
2019-05-11T12:59:54.746Z,21.60
2019-05-11T13:02:39.379Z,21.50
2019-05-11T13:05:34.350Z,21.50
2019-05-11T13:08:18.917Z,21.70
2019-05-11T13:11:03.957Z,21.90
2019-05-11T13:13:59.501Z,22.20
2019-05-11T13:16:44.094Z,22.50
2019-05-11T13:19:28.977Z,22.00
2019-05-11T13:22:13.402Z,21.70
2019-05-11T13:24:58.813Z,21.20
2019-05-11T13:27:52.818Z,20.90
2019-05-11T13:30:38.211Z,20.50
2019-05-11T13:33:31.540Z,20.20
2019-05-11T13:36:15.833Z,19.00
2019-05-11T13:39:01.241Z,17.70
2019-05-11T13:41:47.616Z,16.80
2019-05-11T13:44:32.260Z,15.60
2019-05-11T13:47:18.065Z,15.20
2019-05-11T13:50:02.685Z,15.10
2019-05-11T13:52:58.222Z,14.80
2019-05-11T13:55:43.214Z,14.70
2019-05-11T13:58:38.131Z,14.30
2019-05-11T14:01:22.930Z,14.10
2019-05-11T14:04:08.567Z,14.30
2019-05-11T14:06:53.644Z,14.70
2019-05-11T14:09:38.112Z,15.30
2019-05-11T14:12:31.651Z,15.80
2019-05-11T14:15:18.122Z,16.40
2019-05-11T14:18:07.840Z,16.60
2019-05-11T14:20:48.913Z,16.60
2019-05-11T14:23:33.817Z,16.50
2019-05-11T14:26:19.211Z,16.60
2019-05-11T14:29:13.279Z,16.80
2019-05-11T14:32:08.579Z,16.80
2019-05-11T14:34:53.242Z,16.80
2019-05-11T14:37:38.232Z,16.70
2019-05-11T14:40:22.662Z,16.40
2019-05-11T14:43:08.483Z,15.80
2019-05-11T14:46:01.717Z,15.10
2019-05-11T14:48:48.176Z,14.30
2019-05-11T14:51:33.137Z,13.80
2019-05-11T14:54:18.832Z,13.70
2019-05-11T14:57:13.451Z,13.80
2019-05-11T14:59:58.722Z,14.00
2019-05-11T15:02:52.542Z,14.00
2019-05-11T15:05:38.604Z,13.90
2019-05-11T15:08:23.383Z,14.00
2019-05-11T15:11:08.609Z,14.10
2019-05-11T15:13:53.085Z,14.10
2019-05-11T15:16:38.484Z,14.20
2019-05-11T15:19:32.671Z,14.20
2019-05-11T15:22:18.258Z,14.20
2019-05-11T15:25:03.068Z,14.10
2019-05-11T15:27:48.752Z,14.20
2019-05-11T15:30:42.554Z,14.20
2019-05-11T15:33:27.825Z,14.20
2019-05-11T15:36:21.886Z,14.10
2019-05-11T15:39:18.192Z,14.00
2019-05-11T15:42:16.807Z,13.60
2019-05-11T15:45:07.867Z,13.30
2019-05-11T15:47:53.346Z,13.10
2019-05-11T15:50:40.213Z,13.00
2019-05-11T15:53:23.929Z,13.00
2019-05-11T15:56:08.689Z,13.10
2019-05-11T15:58:53.645Z,13.00
2019-05-11T16:01:41.184Z,13.10
2019-05-11T16:04:24.982Z,13.00
2019-05-11T16:07:09.440Z,13.00
2019-05-11T16:10:03.325Z,13.00
2019-05-11T16:12:58.611Z,13.10
2019-05-11T16:15:43.470Z,13.30
2019-05-11T16:18:28.181Z,13.50
2019-05-11T16:21:12.789Z,13.50
2019-05-11T16:23:58.477Z,13.70
2019-05-11T16:26:53.130Z,13.80
2019-05-11T16:29:38.440Z,13.70
2019-05-11T16:32:32.199Z,13.10
2019-05-11T16:35:19.379Z,12.90
2019-05-11T16:38:12.581Z,12.80
2019-05-11T16:40:58.426Z,12.70
2019-05-11T16:43:43.465Z,12.60
2019-05-11T16:46:38.940Z,12.60
2019-05-11T16:49:31.697Z,12.50
2019-05-11T16:52:10.180Z,12.50
2019-05-11T16:54:54.903Z,12.70
2019-05-11T16:57:48.751Z,12.70
2019-05-11T17:00:42.570Z,12.80
2019-05-11T17:03:27.957Z,12.70
2019-05-11T17:06:12.973Z,12.80
2019-05-11T17:08:58.010Z,12.80
2019-05-11T17:11:42.528Z,12.70
2019-05-11T17:14:28.191Z,12.70
2019-05-11T17:17:30.448Z,12.70
2019-05-11T17:20:24.001Z,12.80
2019-05-11T17:23:08.946Z,12.80
2019-05-11T17:25:53.449Z,12.80
2019-05-11T17:28:38.678Z,12.80
2019-05-11T17:31:23.274Z,12.80
2019-05-11T17:34:09.036Z,12.80
2019-05-11T17:36:57.147Z,12.70
2019-05-11T17:39:41.501Z,12.70
2019-05-11T17:42:34.878Z,12.60
2019-05-11T17:45:19.630Z,12.50
2019-05-11T17:48:04.329Z,12.50
2019-05-11T17:50:49.176Z,12.40
2019-05-11T17:53:34.045Z,12.30
2019-05-11T17:56:18.505Z,12.30
2019-05-11T17:59:03.437Z,12.30
2019-05-11T18:01:58.314Z,12.30
2019-05-11T18:04:52.247Z,12.30
2019-05-11T18:07:38.556Z,12.30
2019-05-11T18:10:32.675Z,12.30
2019-05-11T18:13:18.329Z,12.30
2019-05-11T18:16:03.060Z,12.40
2019-05-11T18:18:48.433Z,12.30
2019-05-11T18:21:33.224Z,12.30
2019-05-11T18:24:17.965Z,12.40
2019-05-11T18:26:51.509Z,12.30
2019-05-11T18:29:24.600Z,12.20
2019-05-11T18:32:17.870Z,12.10
2019-05-11T18:34:50.725Z,12.10
2019-05-11T18:37:23.572Z,12.10
2019-05-11T18:39:58.521Z,12.10
2019-05-11T18:42:31.376Z,12.00
2019-05-11T18:45:24.825Z,12.00
2019-05-11T18:48:09.577Z,11.90
2019-05-11T18:50:56.273Z,11.90
2019-05-11T18:53:31.985Z,11.80
2019-05-11T18:56:13.576Z,11.80
2019-05-11T18:58:58.408Z,11.80
2019-05-11T19:01:54.138Z,11.80
2019-05-11T19:04:38.969Z,11.80
2019-05-11T19:07:23.333Z,11.70
2019-05-11T19:10:08.537Z,11.60
2019-05-11T19:12:53.223Z,11.60
2019-05-11T19:15:38.802Z,11.50
2019-05-11T19:18:32.785Z,11.40
2019-05-11T19:21:17.966Z,11.30
2019-05-11T19:24:11.706Z,11.20
2019-05-11T19:26:58.852Z,11.20
2019-05-11T19:29:52.009Z,11.20
2019-05-11T19:32:38.353Z,11.20
2019-05-11T19:35:23.407Z,11.20
2019-05-11T19:38:08.819Z,11.20
2019-05-11T19:40:53.740Z,11.10
2019-05-11T19:43:39.209Z,11.10
2019-05-11T19:46:12.070Z,11.00
2019-05-11T19:49:04.021Z,11.00
2019-05-11T19:51:48.748Z,11.00
2019-05-11T19:54:33.533Z,11.00
2019-05-11T19:57:18.528Z,11.00
2019-05-11T20:00:07.801Z,11.00
2019-05-11T20:02:52.442Z,11.00
2019-05-11T20:05:38.024Z,11.00
2019-05-11T20:08:32.066Z,10.90
2019-05-11T20:11:27.901Z,10.90
2019-05-11T20:14:21.625Z,10.90
2019-05-11T20:17:08.789Z,10.90
2019-05-11T20:19:52.289Z,10.90
2019-05-11T20:22:39.008Z,10.80
2019-05-11T20:25:23.321Z,10.80
2019-05-11T20:28:07.601Z,10.80
2019-05-11T20:31:01.233Z,10.80
2019-05-11T20:33:47.741Z,10.80
2019-05-11T20:36:33.477Z,10.80
2019-05-11T20:39:18.237Z,10.70
2019-05-11T20:42:02.453Z,10.70
2019-05-11T20:44:58.098Z,10.70
2019-05-11T20:47:51.914Z,10.70
2019-05-11T20:50:37.883Z,10.60
2019-05-11T20:53:22.622Z,10.60
2019-05-11T20:56:08.555Z,10.50
2019-05-11T20:58:59.294Z,10.60
2019-05-11T21:01:43.332Z,10.60
2019-05-11T21:04:28.351Z,10.60
2019-05-11T21:07:12.696Z,10.60
2019-05-11T21:09:58.014Z,10.60
2019-05-11T21:12:42.211Z,10.50
2019-05-11T21:15:35.689Z,10.60
2019-05-11T21:18:20.852Z,10.60
2019-05-11T21:21:14.222Z,10.50
2019-05-11T21:23:58.746Z,10.50
2019-05-11T21:26:43.385Z,10.60
2019-05-11T21:29:31.188Z,10.50
2019-05-11T21:32:14.325Z,10.50
2019-05-11T21:35:08.875Z,10.40
2019-05-11T21:37:54.263Z,10.40
2019-05-11T21:40:39.019Z,10.30
2019-05-11T21:43:23.376Z,10.30
2019-05-11T21:46:18.091Z,10.30
2019-05-11T21:49:11.845Z,10.30
2019-05-11T21:52:04.068Z,10.30
2019-05-11T21:54:42.444Z,10.30
2019-05-11T21:57:27.838Z,10.30
2019-05-11T22:00:12.719Z,10.30
2019-05-11T22:03:10.473Z,10.30
2019-05-11T22:05:55.117Z,10.20
2019-05-11T22:08:40.032Z,10.20
2019-05-11T22:11:25.125Z,10.20
2019-05-11T22:14:18.482Z,10.30
2019-05-11T22:17:03.502Z,10.10
2019-05-11T22:19:48.205Z,10.20
2019-05-11T22:22:33.249Z,10.20
2019-05-11T22:25:18.495Z,10.20
2019-05-11T22:28:12.380Z,10.20
2019-05-11T22:30:58.405Z,10.20
2019-05-11T22:33:42.825Z,10.20
2019-05-11T22:36:28.339Z,10.30
2019-05-11T22:39:22.134Z,10.30
2019-05-11T22:42:07.968Z,10.30
2019-05-11T22:44:52.909Z,10.20
2019-05-11T22:47:39.262Z,10.20
2019-05-11T22:50:24.144Z,10.20
2019-05-11T22:53:11.550Z,10.20
2019-05-11T22:55:55.336Z,10.20
2019-05-11T22:58:40.366Z,10.20
2019-05-11T23:01:32.324Z,10.10
2019-05-11T23:04:25.905Z,10.00
2019-05-11T23:07:11.207Z,10.00
2019-05-11T23:10:04.625Z,10.00
2019-05-11T23:12:49.249Z,10.10
2019-05-11T23:15:34.037Z,10.20
2019-05-11T23:18:18.884Z,10.10
2019-05-11T23:21:03.795Z,10.20
2019-05-11T23:23:48.273Z,10.10
2019-05-11T23:26:33.117Z,10.10
2019-05-11T23:29:28.135Z,10.10
2019-05-11T23:32:21.874Z,10.10
2019-05-11T23:35:08.420Z,10.00
2019-05-11T23:38:02.299Z,10.00
2019-05-11T23:40:48.169Z,10.10
2019-05-11T23:43:33.036Z,10.10
2019-05-11T23:46:17.689Z,10.10
2019-05-11T23:49:02.336Z,10.00
2019-05-11T23:51:55.581Z,10.00
2019-05-11T23:54:40.130Z,10.10
2019-05-11T23:57:25.033Z,10.00
